sensor_id;sensor_type;location;lat;lon;timestamp;temperature;humidity
7317;DHT22;3699;51.462;6.696;2022-08-21T00:01:20;18.50;99.90
7317;DHT22;3699;51.462;6.696;2022-08-21T00:03:48;18.50;99.90
7317;DHT22;3699;51.462;6.696;2022-08-21T00:06:15;18.50;99.90
7317;DHT22;3699;51.462;6.696;2022-08-21T00:08:42;18.40;99.90
7317;DHT22;3699;51.462;6.696;2022-08-21T00:11:09;18.40;99.90
7317;DHT22;3699;51.462;6.696;2022-08-21T00:13:37;18.30;99.90
7317;DHT22;3699;51.462;6.696;2022-08-21T00:18:31;18.10;99.90
7317;DHT22;3699;51.462;6.696;2022-08-21T00:20:58;18.10;99.90
7317;DHT22;3699;51.462;6.696;2022-08-21T00:23:25;18.00;99.90
7317;DHT22;3699;51.462;6.696;2022-08-21T00:25:52;17.90;99.90
7317;DHT22;3699;51.462;6.696;2022-08-21T00:28:19;17.80;99.90
7317;DHT22;3699;51.462;6.696;2022-08-21T00:30:47;17.80;99.90
7317;DHT22;3699;51.462;6.696;2022-08-21T00:33:14;17.80;99.90
7317;DHT22;3699;51.462;6.696;2022-08-21T00:35:42;17.70;99.90
7317;DHT22;3699;51.462;6.696;2022-08-21T00:38:09;17.60;99.90
7317;DHT22;3699;51.462;6.696;2022-08-21T00:40:40;17.60;99.90
7317;DHT22;3699;51.462;6.696;2022-08-21T00:43:08;17.50;99.90
7317;DHT22;3699;51.462;6.696;2022-08-21T00:45:36;17.40;99.90
7317;DHT22;3699;51.462;6.696;2022-08-21T00:48:04;17.40;99.90
7317;DHT22;3699;51.462;6.696;2022-08-21T00:50:34;17.40;99.90
7317;DHT22;3699;51.462;6.696;2022-08-21T00:53:03;17.30;99.90
7317;DHT22;3699;51.462;6.696;2022-08-21T00:55:32;17.20;99.90
7317;DHT22;3699;51.462;6.696;2022-08-21T00:58:01;17.20;99.90
7317;DHT22;3699;51.462;6.696;2022-08-21T01:00:32;17.10;99.90
7317;DHT22;3699;51.462;6.696;2022-08-21T01:03:02;17.10;99.90
7317;DHT22;3699;51.462;6.696;2022-08-21T01:05:33;17.00;99.90
7317;DHT22;3699;51.462;6.696;2022-08-21T01:08:00;17.00;99.90
7317;DHT22;3699;51.462;6.696;2022-08-21T01:10:26;17.00;99.90
7317;DHT22;3699;51.462;6.696;2022-08-21T01:12:55;16.90;99.90
7317;DHT22;3699;51.462;6.696;2022-08-21T01:15:24;16.80;99.90
7317;DHT22;3699;51.462;6.696;2022-08-21T01:17:53;16.80;99.90
7317;DHT22;3699;51.462;6.696;2022-08-21T01:20:20;16.80;99.90
7317;DHT22;3699;51.462;6.696;2022-08-21T01:22:48;16.70;99.90
7317;DHT22;3699;51.462;6.696;2022-08-21T01:25:17;16.70;99.90
7317;DHT22;3699;51.462;6.696;2022-08-21T01:27:45;16.70;99.90
7317;DHT22;3699;51.462;6.696;2022-08-21T01:30:18;16.70;99.90
7317;DHT22;3699;51.462;6.696;2022-08-21T01:32:46;16.60;99.90
7317;DHT22;3699;51.462;6.696;2022-08-21T01:35:14;16.60;99.90
7317;DHT22;3699;51.462;6.696;2022-08-21T01:37:42;16.60;99.90
7317;DHT22;3699;51.462;6.696;2022-08-21T01:40:12;16.60;99.90
7317;DHT22;3699;51.462;6.696;2022-08-21T01:42:39;16.50;99.90
7317;DHT22;3699;51.462;6.696;2022-08-21T01:45:07;16.50;99.90
7317;DHT22;3699;51.462;6.696;2022-08-21T01:47:35;16.50;99.90
7317;DHT22;3699;51.462;6.696;2022-08-21T01:50:04;16.40;99.90
7317;DHT22;3699;51.462;6.696;2022-08-21T01:52:31;16.40;99.90
7317;DHT22;3699;51.462;6.696;2022-08-21T01:54:57;16.40;99.90
7317;DHT22;3699;51.462;6.696;2022-08-21T01:57:26;16.40;99.90
7317;DHT22;3699;51.462;6.696;2022-08-21T01:59:53;16.30;99.90
7317;DHT22;3699;51.462;6.696;2022-08-21T02:02:20;16.30;99.90
7317;DHT22;3699;51.462;6.696;2022-08-21T02:04:46;16.30;99.90
7317;DHT22;3699;51.462;6.696;2022-08-21T02:07:14;16.20;99.90
7317;DHT22;3699;51.462;6.696;2022-08-21T02:09:41;16.20;99.90
7317;DHT22;3699;51.462;6.696;2022-08-21T02:12:08;16.20;99.90
7317;DHT22;3699;51.462;6.696;2022-08-21T02:14:37;16.20;99.90
7317;DHT22;3699;51.462;6.696;2022-08-21T02:17:04;16.20;99.90
7317;DHT22;3699;51.462;6.696;2022-08-21T02:19:31;16.20;99.90
7317;DHT22;3699;51.462;6.696;2022-08-21T02:21:58;16.20;99.90
7317;DHT22;3699;51.462;6.696;2022-08-21T02:24:25;16.20;99.90
7317;DHT22;3699;51.462;6.696;2022-08-21T02:26:52;16.20;99.90
7317;DHT22;3699;51.462;6.696;2022-08-21T02:29:18;16.20;99.90
7317;DHT22;3699;51.462;6.696;2022-08-21T02:31:46;16.20;99.90
7317;DHT22;3699;51.462;6.696;2022-08-21T02:34:13;16.20;99.90
7317;DHT22;3699;51.462;6.696;2022-08-21T02:36:40;16.20;99.90
7317;DHT22;3699;51.462;6.696;2022-08-21T02:39:06;16.20;99.90
7317;DHT22;3699;51.462;6.696;2022-08-21T02:41:33;16.20;99.90
7317;DHT22;3699;51.462;6.696;2022-08-21T02:46:27;16.10;99.90
7317;DHT22;3699;51.462;6.696;2022-08-21T02:48:55;16.20;99.90
7317;DHT22;3699;51.462;6.696;2022-08-21T02:51:22;16.10;99.90
7317;DHT22;3699;51.462;6.696;2022-08-21T02:53:50;16.10;99.90
7317;DHT22;3699;51.462;6.696;2022-08-21T02:56:19;16.10;99.90
7317;DHT22;3699;51.462;6.696;2022-08-21T02:58:49;16.00;99.90
7317;DHT22;3699;51.462;6.696;2022-08-21T03:01:16;16.00;99.90
7317;DHT22;3699;51.462;6.696;2022-08-21T03:03:45;16.00;99.90
7317;DHT22;3699;51.462;6.696;2022-08-21T03:06:18;16.00;99.90
7317;DHT22;3699;51.462;6.696;2022-08-21T03:08:45;16.00;99.90
7317;DHT22;3699;51.462;6.696;2022-08-21T03:11:12;16.00;99.90
7317;DHT22;3699;51.462;6.696;2022-08-21T03:13:39;16.00;99.90
7317;DHT22;3699;51.462;6.696;2022-08-21T03:16:06;15.90;99.90
7317;DHT22;3699;51.462;6.696;2022-08-21T03:18:33;15.90;99.90
7317;DHT22;3699;51.462;6.696;2022-08-21T03:21:01;15.90;99.90
7317;DHT22;3699;51.462;6.696;2022-08-21T03:23:29;15.80;99.90
7317;DHT22;3699;51.462;6.696;2022-08-21T03:25:56;15.80;99.90
7317;DHT22;3699;51.462;6.696;2022-08-21T03:28:24;15.80;99.90
7317;DHT22;3699;51.462;6.696;2022-08-21T03:30:51;15.80;99.90
7317;DHT22;3699;51.462;6.696;2022-08-21T03:33:19;15.80;99.90
7317;DHT22;3699;51.462;6.696;2022-08-21T03:35:52;15.80;99.90
7317;DHT22;3699;51.462;6.696;2022-08-21T03:38:21;15.80;99.90
7317;DHT22;3699;51.462;6.696;2022-08-21T03:40:49;15.80;99.90
7317;DHT22;3699;51.462;6.696;2022-08-21T03:43:15;15.80;99.90
7317;DHT22;3699;51.462;6.696;2022-08-21T03:45:42;15.80;99.90
7317;DHT22;3699;51.462;6.696;2022-08-21T03:48:09;15.80;99.90
7317;DHT22;3699;51.462;6.696;2022-08-21T03:50:39;15.80;99.90
7317;DHT22;3699;51.462;6.696;2022-08-21T03:53:06;15.70;99.90
7317;DHT22;3699;51.462;6.696;2022-08-21T03:55:33;15.70;99.90
7317;DHT22;3699;51.462;6.696;2022-08-21T03:58:01;15.70;99.90
7317;DHT22;3699;51.462;6.696;2022-08-21T04:00:29;15.70;99.90
7317;DHT22;3699;51.462;6.696;2022-08-21T04:02:56;15.70;99.90
7317;DHT22;3699;51.462;6.696;2022-08-21T04:05:23;15.60;99.90
7317;DHT22;3699;51.462;6.696;2022-08-21T04:07:57;15.60;99.90
7317;DHT22;3699;51.462;6.696;2022-08-21T04:10:25;15.60;99.90
7317;DHT22;3699;51.462;6.696;2022-08-21T04:12:52;15.60;99.90
7317;DHT22;3699;51.462;6.696;2022-08-21T04:15:21;15.50;99.90
7317;DHT22;3699;51.462;6.696;2022-08-21T04:17:48;15.50;99.90
7317;DHT22;3699;51.462;6.696;2022-08-21T04:20:15;15.50;99.90
7317;DHT22;3699;51.462;6.696;2022-08-21T04:22:42;15.50;99.90
7317;DHT22;3699;51.462;6.696;2022-08-21T04:25:10;15.50;99.90
7317;DHT22;3699;51.462;6.696;2022-08-21T04:30:05;15.50;99.90
7317;DHT22;3699;51.462;6.696;2022-08-21T04:32:33;15.60;99.90
7317;DHT22;3699;51.462;6.696;2022-08-21T04:35:02;15.60;99.90
7317;DHT22;3699;51.462;6.696;2022-08-21T04:37:29;15.70;99.90
7317;DHT22;3699;51.462;6.696;2022-08-21T04:39:56;15.70;99.90
7317;DHT22;3699;51.462;6.696;2022-08-21T04:44:50;15.70;99.90
7317;DHT22;3699;51.462;6.696;2022-08-21T04:47:17;15.70;99.90
7317;DHT22;3699;51.462;6.696;2022-08-21T04:49:45;15.80;99.90
7317;DHT22;3699;51.462;6.696;2022-08-21T04:52:15;15.80;99.90
7317;DHT22;3699;51.462;6.696;2022-08-21T04:54:44;15.90;99.90
7317;DHT22;3699;51.462;6.696;2022-08-21T04:57:12;15.90;99.90
7317;DHT22;3699;51.462;6.696;2022-08-21T04:59:44;16.00;99.90
7317;DHT22;3699;51.462;6.696;2022-08-21T05:02:12;16.00;99.90
7317;DHT22;3699;51.462;6.696;2022-08-21T05:04:42;16.10;99.90
7317;DHT22;3699;51.462;6.696;2022-08-21T05:07:14;16.20;99.90
7317;DHT22;3699;51.462;6.696;2022-08-21T05:09:41;16.40;99.90
7317;DHT22;3699;51.462;6.696;2022-08-21T05:12:08;16.40;99.90
7317;DHT22;3699;51.462;6.696;2022-08-21T05:14:35;16.60;99.90
7317;DHT22;3699;51.462;6.696;2022-08-21T05:17:02;16.60;99.90
7317;DHT22;3699;51.462;6.696;2022-08-21T05:19:29;16.70;99.90
7317;DHT22;3699;51.462;6.696;2022-08-21T05:21:56;16.80;99.90
7317;DHT22;3699;51.462;6.696;2022-08-21T05:24:25;16.90;99.90
7317;DHT22;3699;51.462;6.696;2022-08-21T05:26:52;17.00;99.90
7317;DHT22;3699;51.462;6.696;2022-08-21T05:29:18;17.10;99.90
7317;DHT22;3699;51.462;6.696;2022-08-21T05:31:46;17.20;99.90
7317;DHT22;3699;51.462;6.696;2022-08-21T05:34:14;17.40;99.90
7317;DHT22;3699;51.462;6.696;2022-08-21T05:36:41;17.50;99.90
7317;DHT22;3699;51.462;6.696;2022-08-21T05:39:08;17.90;99.90
7317;DHT22;3699;51.462;6.696;2022-08-21T05:41:36;18.00;99.90
7317;DHT22;3699;51.462;6.696;2022-08-21T05:44:03;18.20;99.90
7317;DHT22;3699;51.462;6.696;2022-08-21T05:46:30;18.50;99.90
7317;DHT22;3699;51.462;6.696;2022-08-21T05:48:57;18.90;99.90
7317;DHT22;3699;51.462;6.696;2022-08-21T05:51:24;19.20;99.90
7317;DHT22;3699;51.462;6.696;2022-08-21T05:53:50;19.70;99.90
7317;DHT22;3699;51.462;6.696;2022-08-21T05:56:17;20.20;99.90
7317;DHT22;3699;51.462;6.696;2022-08-21T05:58:45;20.70;99.90
7317;DHT22;3699;51.462;6.696;2022-08-21T06:01:12;21.10;99.90
7317;DHT22;3699;51.462;6.696;2022-08-21T06:03:41;21.50;99.90
7317;DHT22;3699;51.462;6.696;2022-08-21T06:06:08;21.90;99.90
7317;DHT22;3699;51.462;6.696;2022-08-21T06:08:35;22.30;99.90
7317;DHT22;3699;51.462;6.696;2022-08-21T06:11:03;22.50;99.90
7317;DHT22;3699;51.462;6.696;2022-08-21T06:13:30;22.70;99.90
7317;DHT22;3699;51.462;6.696;2022-08-21T06:16:03;22.90;99.90
7317;DHT22;3699;51.462;6.696;2022-08-21T06:18:31;23.20;99.90
7317;DHT22;3699;51.462;6.696;2022-08-21T06:20:58;23.40;99.90
7317;DHT22;3699;51.462;6.696;2022-08-21T06:23:25;23.60;99.90
7317;DHT22;3699;51.462;6.696;2022-08-21T06:25:52;24.00;99.90
7317;DHT22;3699;51.462;6.696;2022-08-21T06:28:19;24.00;99.90
7317;DHT22;3699;51.462;6.696;2022-08-21T06:30:45;24.20;99.90
7317;DHT22;3699;51.462;6.696;2022-08-21T06:33:14;24.50;99.90
7317;DHT22;3699;51.462;6.696;2022-08-21T06:35:40;24.60;99.90
7317;DHT22;3699;51.462;6.696;2022-08-21T06:38:07;24.90;99.90
7317;DHT22;3699;51.462;6.696;2022-08-21T06:40:34;25.00;99.90
7317;DHT22;3699;51.462;6.696;2022-08-21T06:43:06;25.20;99.90
7317;DHT22;3699;51.462;6.696;2022-08-21T06:45:33;25.40;99.90
7317;DHT22;3699;51.462;6.696;2022-08-21T06:48:00;25.70;99.90
7317;DHT22;3699;51.462;6.696;2022-08-21T06:50:28;25.90;99.90
7317;DHT22;3699;51.462;6.696;2022-08-21T06:52:59;26.10;99.90
7317;DHT22;3699;51.462;6.696;2022-08-21T06:55:27;26.20;99.90
7317;DHT22;3699;51.462;6.696;2022-08-21T06:57:54;26.20;99.90
7317;DHT22;3699;51.462;6.696;2022-08-21T07:00:20;26.40;99.90
7317;DHT22;3699;51.462;6.696;2022-08-21T07:02:47;26.50;93.80
7317;DHT22;3699;51.462;6.696;2022-08-21T07:05:14;26.60;96.20
7317;DHT22;3699;51.462;6.696;2022-08-21T07:07:43;26.70;92.00
7317;DHT22;3699;51.462;6.696;2022-08-21T07:10:10;26.70;90.00
7317;DHT22;3699;51.462;6.696;2022-08-21T07:12:36;26.90;88.60
7317;DHT22;3699;51.462;6.696;2022-08-21T07:15:04;26.90;90.10
7317;DHT22;3699;51.462;6.696;2022-08-21T07:17:32;27.00;87.40
7317;DHT22;3699;51.462;6.696;2022-08-21T07:19:58;27.00;81.20
7317;DHT22;3699;51.462;6.696;2022-08-21T07:22:25;26.90;79.10
7317;DHT22;3699;51.462;6.696;2022-08-21T07:24:55;26.90;86.00
7317;DHT22;3699;51.462;6.696;2022-08-21T07:27:22;26.90;81.20
7317;DHT22;3699;51.462;6.696;2022-08-21T07:29:48;26.70;78.90
7317;DHT22;3699;51.462;6.696;2022-08-21T07:32:15;26.70;80.40
7317;DHT22;3699;51.462;6.696;2022-08-21T07:34:42;26.50;84.30
7317;DHT22;3699;51.462;6.696;2022-08-21T07:37:10;26.30;82.20
7317;DHT22;3699;51.462;6.696;2022-08-21T07:39:36;26.10;86.30
7317;DHT22;3699;51.462;6.696;2022-08-21T07:42:05;25.70;90.60
7317;DHT22;3699;51.462;6.696;2022-08-21T07:44:31;25.60;96.30
7317;DHT22;3699;51.462;6.696;2022-08-21T07:46:59;25.30;93.60
7317;DHT22;3699;51.462;6.696;2022-08-21T07:49:26;25.00;94.50
7317;DHT22;3699;51.462;6.696;2022-08-21T07:51:53;24.90;95.30
7317;DHT22;3699;51.462;6.696;2022-08-21T07:54:20;24.90;99.90
7317;DHT22;3699;51.462;6.696;2022-08-21T07:56:47;24.90;99.90
7317;DHT22;3699;51.462;6.696;2022-08-21T07:59:15;25.00;99.90
7317;DHT22;3699;51.462;6.696;2022-08-21T08:01:42;25.00;99.90
7317;DHT22;3699;51.462;6.696;2022-08-21T08:04:09;25.00;99.90
7317;DHT22;3699;51.462;6.696;2022-08-21T08:06:35;25.10;99.90
7317;DHT22;3699;51.462;6.696;2022-08-21T08:09:02;25.20;97.80
7317;DHT22;3699;51.462;6.696;2022-08-21T08:11:29;25.30;95.60
7317;DHT22;3699;51.462;6.696;2022-08-21T08:13:56;25.40;95.40
7317;DHT22;3699;51.462;6.696;2022-08-21T08:16:26;25.40;97.10
7317;DHT22;3699;51.462;6.696;2022-08-21T08:18:53;25.60;90.70
7317;DHT22;3699;51.462;6.696;2022-08-21T08:21:21;25.60;92.50
7317;DHT22;3699;51.462;6.696;2022-08-21T08:23:48;25.70;93.10
7317;DHT22;3699;51.462;6.696;2022-08-21T08:26:15;25.90;84.70
7317;DHT22;3699;51.462;6.696;2022-08-21T08:28:42;25.90;93.00
7317;DHT22;3699;51.462;6.696;2022-08-21T08:31:09;26.10;93.40
7317;DHT22;3699;51.462;6.696;2022-08-21T08:33:37;26.40;82.60
7317;DHT22;3699;51.462;6.696;2022-08-21T08:36:04;26.40;82.70
7317;DHT22;3699;51.462;6.696;2022-08-21T08:38:31;26.60;82.30
7317;DHT22;3699;51.462;6.696;2022-08-21T08:41:03;26.60;81.60
7317;DHT22;3699;51.462;6.696;2022-08-21T08:43:33;26.80;89.40
7317;DHT22;3699;51.462;6.696;2022-08-21T08:46:03;27.00;85.20
7317;DHT22;3699;51.462;6.696;2022-08-21T08:48:43;27.20;81.10
7317;DHT22;3699;51.462;6.696;2022-08-21T08:51:16;27.50;79.60
7317;DHT22;3699;51.462;6.696;2022-08-21T08:53:50;27.40;71.30
7317;DHT22;3699;51.462;6.696;2022-08-21T08:56:25;27.40;73.60
7317;DHT22;3699;51.462;6.696;2022-08-21T08:58:54;27.30;65.70
7317;DHT22;3699;51.462;6.696;2022-08-21T09:01:22;27.20;74.00
7317;DHT22;3699;51.462;6.696;2022-08-21T09:03:50;27.40;70.90
7317;DHT22;3699;51.462;6.696;2022-08-21T09:06:25;27.10;69.90
7317;DHT22;3699;51.462;6.696;2022-08-21T09:09:01;26.90;74.70
7317;DHT22;3699;51.462;6.696;2022-08-21T09:11:31;27.00;75.60
7317;DHT22;3699;51.462;6.696;2022-08-21T09:14:07;27.00;78.10
7317;DHT22;3699;51.462;6.696;2022-08-21T09:16:42;27.00;73.40
7317;DHT22;3699;51.462;6.696;2022-08-21T09:19:27;27.00;76.30
7317;DHT22;3699;51.462;6.696;2022-08-21T09:22:06;27.20;67.70
7317;DHT22;3699;51.462;6.696;2022-08-21T09:24:40;27.30;69.60
7317;DHT22;3699;51.462;6.696;2022-08-21T09:27:12;27.50;72.30
7317;DHT22;3699;51.462;6.696;2022-08-21T09:29:42;28.00;68.20
7317;DHT22;3699;51.462;6.696;2022-08-21T09:32:14;28.00;68.80
7317;DHT22;3699;51.462;6.696;2022-08-21T09:34:55;28.10;60.40
7317;DHT22;3699;51.462;6.696;2022-08-21T09:37:23;28.10;63.30
7317;DHT22;3699;51.462;6.696;2022-08-21T09:39:50;28.10;63.10
7317;DHT22;3699;51.462;6.696;2022-08-21T09:42:22;28.20;62.60
7317;DHT22;3699;51.462;6.696;2022-08-21T09:45:06;28.20;64.60
7317;DHT22;3699;51.462;6.696;2022-08-21T09:47:33;28.20;63.30
7317;DHT22;3699;51.462;6.696;2022-08-21T09:50:13;28.10;62.40
7317;DHT22;3699;51.462;6.696;2022-08-21T09:52:48;28.10;57.70
7317;DHT22;3699;51.462;6.696;2022-08-21T09:55:19;28.30;61.00
7317;DHT22;3699;51.462;6.696;2022-08-21T09:58:04;28.50;60.10
7317;DHT22;3699;51.462;6.696;2022-08-21T10:00:33;28.60;58.20
7317;DHT22;3699;51.462;6.696;2022-08-21T10:03:13;28.50;56.80
7317;DHT22;3699;51.462;6.696;2022-08-21T10:05:54;28.40;57.60
7317;DHT22;3699;51.462;6.696;2022-08-21T10:08:23;28.40;58.20
7317;DHT22;3699;51.462;6.696;2022-08-21T10:10:53;28.50;58.10
7317;DHT22;3699;51.462;6.696;2022-08-21T10:13:25;28.60;58.20
7317;DHT22;3699;51.462;6.696;2022-08-21T10:16:02;28.80;56.30
7317;DHT22;3699;51.462;6.696;2022-08-21T10:18:37;28.80;53.00
7317;DHT22;3699;51.462;6.696;2022-08-21T10:21:12;28.80;53.20
7317;DHT22;3699;51.462;6.696;2022-08-21T10:23:51;28.80;54.10
7317;DHT22;3699;51.462;6.696;2022-08-21T10:26:35;28.80;53.40
7317;DHT22;3699;51.462;6.696;2022-08-21T10:29:12;28.80;54.20
7317;DHT22;3699;51.462;6.696;2022-08-21T10:31:47;28.70;54.00
7317;DHT22;3699;51.462;6.696;2022-08-21T10:34:28;28.70;53.30
7317;DHT22;3699;51.462;6.696;2022-08-21T10:37:12;28.70;53.70
7317;DHT22;3699;51.462;6.696;2022-08-21T10:39:48;28.30;54.20
7317;DHT22;3699;51.462;6.696;2022-08-21T10:42:27;28.30;54.40
7317;DHT22;3699;51.462;6.696;2022-08-21T10:45:07;28.20;56.70
7317;DHT22;3699;51.462;6.696;2022-08-21T10:47:41;28.20;57.40
7317;DHT22;3699;51.462;6.696;2022-08-21T10:50:12;28.40;57.20
7317;DHT22;3699;51.462;6.696;2022-08-21T10:55:42;28.30;58.00
7317;DHT22;3699;51.462;6.696;2022-08-21T10:58:12;28.30;58.40
7317;DHT22;3699;51.462;6.696;2022-08-21T11:00:43;28.20;58.00
7317;DHT22;3699;51.462;6.696;2022-08-21T11:03:15;28.10;59.40
7317;DHT22;3699;51.462;6.696;2022-08-21T11:05:46;28.00;54.40
7317;DHT22;3699;51.462;6.696;2022-08-21T11:08:21;27.90;55.10
7317;DHT22;3699;51.462;6.696;2022-08-21T11:10:53;27.80;60.60
7317;DHT22;3699;51.462;6.696;2022-08-21T11:13:33;27.90;57.70
7317;DHT22;3699;51.462;6.696;2022-08-21T11:16:07;27.90;58.00
7317;DHT22;3699;51.462;6.696;2022-08-21T11:18:38;28.00;58.80
7317;DHT22;3699;51.462;6.696;2022-08-21T11:24:01;28.20;53.70
7317;DHT22;3699;51.462;6.696;2022-08-21T11:26:34;28.30;55.50
7317;DHT22;3699;51.462;6.696;2022-08-21T11:29:10;28.50;55.20
7317;DHT22;3699;51.462;6.696;2022-08-21T11:31:49;28.50;51.00
7317;DHT22;3699;51.462;6.696;2022-08-21T11:34:32;28.50;54.90
7317;DHT22;3699;51.462;6.696;2022-08-21T11:37:06;28.70;53.10
7317;DHT22;3699;51.462;6.696;2022-08-21T11:39:42;28.70;52.70
7317;DHT22;3699;51.462;6.696;2022-08-21T11:42:19;28.80;52.00
7317;DHT22;3699;51.462;6.696;2022-08-21T11:44:53;28.90;53.20
7317;DHT22;3699;51.462;6.696;2022-08-21T11:47:29;29.00;51.10
7317;DHT22;3699;51.462;6.696;2022-08-21T11:50:11;28.90;48.00
7317;DHT22;3699;51.462;6.696;2022-08-21T11:52:42;29.00;52.10
7317;DHT22;3699;51.462;6.696;2022-08-21T11:55:15;29.10;50.40
7317;DHT22;3699;51.462;6.696;2022-08-21T11:57:49;29.10;51.30
7317;DHT22;3699;51.462;6.696;2022-08-21T12:00:18;29.20;51.80
7317;DHT22;3699;51.462;6.696;2022-08-21T12:02:50;29.30;49.60
7317;DHT22;3699;51.462;6.696;2022-08-21T12:05:29;29.30;50.00
7317;DHT22;3699;51.462;6.696;2022-08-21T12:08:04;29.50;51.40
7317;DHT22;3699;51.462;6.696;2022-08-21T12:10:36;29.60;49.30
7317;DHT22;3699;51.462;6.696;2022-08-21T12:13:11;29.50;48.00
7317;DHT22;3699;51.462;6.696;2022-08-21T12:15:39;29.40;49.70
7317;DHT22;3699;51.462;6.696;2022-08-21T12:18:22;29.60;48.30
7317;DHT22;3699;51.462;6.696;2022-08-21T12:21:03;29.60;48.60
7317;DHT22;3699;51.462;6.696;2022-08-21T12:23:33;29.70;48.60
7317;DHT22;3699;51.462;6.696;2022-08-21T12:26:17;29.90;47.90
7317;DHT22;3699;51.462;6.696;2022-08-21T12:28:46;29.80;46.90
7317;DHT22;3699;51.462;6.696;2022-08-21T12:31:23;29.70;47.90
7317;DHT22;3699;51.462;6.696;2022-08-21T12:33:54;29.70;48.10
7317;DHT22;3699;51.462;6.696;2022-08-21T12:36:24;29.60;48.20
7317;DHT22;3699;51.462;6.696;2022-08-21T12:38:54;29.40;48.40
7317;DHT22;3699;51.462;6.696;2022-08-21T12:41:27;29.50;48.20
7317;DHT22;3699;51.462;6.696;2022-08-21T12:43:58;29.60;47.30
7317;DHT22;3699;51.462;6.696;2022-08-21T12:46:37;29.60;47.90
7317;DHT22;3699;51.462;6.696;2022-08-21T12:49:12;29.60;46.80
7317;DHT22;3699;51.462;6.696;2022-08-21T12:51:48;29.60;45.90
7317;DHT22;3699;51.462;6.696;2022-08-21T12:54:23;29.60;46.60
7317;DHT22;3699;51.462;6.696;2022-08-21T12:56:58;29.50;46.30
7317;DHT22;3699;51.462;6.696;2022-08-21T12:59:26;29.30;47.10
7317;DHT22;3699;51.462;6.696;2022-08-21T13:01:54;29.10;45.70
7317;DHT22;3699;51.462;6.696;2022-08-21T13:04:24;28.90;45.00
7317;DHT22;3699;51.462;6.696;2022-08-21T13:06:54;28.90;45.10
7317;DHT22;3699;51.462;6.696;2022-08-21T13:09:28;28.90;44.30
7317;DHT22;3699;51.462;6.696;2022-08-21T13:11:57;28.90;44.70
7317;DHT22;3699;51.462;6.696;2022-08-21T13:14:29;28.80;46.90
7317;DHT22;3699;51.462;6.696;2022-08-21T13:16:58;28.80;44.80
7317;DHT22;3699;51.462;6.696;2022-08-21T13:19:26;28.70;46.80
7317;DHT22;3699;51.462;6.696;2022-08-21T13:21:55;28.80;47.70
7317;DHT22;3699;51.462;6.696;2022-08-21T13:24:24;28.80;47.90
7317;DHT22;3699;51.462;6.696;2022-08-21T13:26:52;28.70;49.60
7317;DHT22;3699;51.462;6.696;2022-08-21T13:29:22;28.60;47.70
7317;DHT22;3699;51.462;6.696;2022-08-21T13:31:51;28.40;48.90
7317;DHT22;3699;51.462;6.696;2022-08-21T13:34:24;28.30;49.60
7317;DHT22;3699;51.462;6.696;2022-08-21T13:36:54;28.30;48.90
7317;DHT22;3699;51.462;6.696;2022-08-21T13:39:22;28.40;49.50
7317;DHT22;3699;51.462;6.696;2022-08-21T13:41:51;28.50;49.60
7317;DHT22;3699;51.462;6.696;2022-08-21T13:44:31;28.60;49.60
7317;DHT22;3699;51.462;6.696;2022-08-21T13:46:59;28.60;49.10
7317;DHT22;3699;51.462;6.696;2022-08-21T13:49:31;28.60;47.90
7317;DHT22;3699;51.462;6.696;2022-08-21T13:51:59;28.60;49.10
7317;DHT22;3699;51.462;6.696;2022-08-21T13:54:37;28.60;46.80
7317;DHT22;3699;51.462;6.696;2022-08-21T13:57:16;28.20;47.60
7317;DHT22;3699;51.462;6.696;2022-08-21T13:59:44;28.20;48.10
7317;DHT22;3699;51.462;6.696;2022-08-21T14:02:14;28.10;49.70
7317;DHT22;3699;51.462;6.696;2022-08-21T14:04:44;28.00;49.50
7317;DHT22;3699;51.462;6.696;2022-08-21T14:07:19;27.90;50.30
7317;DHT22;3699;51.462;6.696;2022-08-21T14:09:47;27.70;49.60
7317;DHT22;3699;51.462;6.696;2022-08-21T14:12:17;27.70;49.40
7317;DHT22;3699;51.462;6.696;2022-08-21T14:14:46;27.70;50.10
7317;DHT22;3699;51.462;6.696;2022-08-21T14:17:26;27.80;50.90
7317;DHT22;3699;51.462;6.696;2022-08-21T14:19:53;27.80;51.80
7317;DHT22;3699;51.462;6.696;2022-08-21T14:22:39;27.80;50.20
7317;DHT22;3699;51.462;6.696;2022-08-21T14:25:08;27.70;50.10
7317;DHT22;3699;51.462;6.696;2022-08-21T14:27:39;27.80;50.60
7317;DHT22;3699;51.462;6.696;2022-08-21T14:30:13;28.00;49.70
7317;DHT22;3699;51.462;6.696;2022-08-21T14:32:42;28.10;48.80
7317;DHT22;3699;51.462;6.696;2022-08-21T14:35:09;28.30;50.50
7317;DHT22;3699;51.462;6.696;2022-08-21T14:37:36;28.50;49.60
7317;DHT22;3699;51.462;6.696;2022-08-21T14:40:04;28.60;49.20
7317;DHT22;3699;51.462;6.696;2022-08-21T14:42:31;28.60;48.90
7317;DHT22;3699;51.462;6.696;2022-08-21T14:45:03;28.50;47.40
7317;DHT22;3699;51.462;6.696;2022-08-21T14:47:33;28.50;47.90
7317;DHT22;3699;51.462;6.696;2022-08-21T14:50:00;28.50;47.40
7317;DHT22;3699;51.462;6.696;2022-08-21T14:52:26;28.50;47.00
7317;DHT22;3699;51.462;6.696;2022-08-21T14:54:53;28.40;45.70
7317;DHT22;3699;51.462;6.696;2022-08-21T14:57:20;28.40;47.30
7317;DHT22;3699;51.462;6.696;2022-08-21T14:59:47;28.30;47.20
7317;DHT22;3699;51.462;6.696;2022-08-21T15:02:13;28.20;45.50
7317;DHT22;3699;51.462;6.696;2022-08-21T15:04:41;28.10;44.10
7317;DHT22;3699;51.462;6.696;2022-08-21T15:07:08;27.90;46.00
7317;DHT22;3699;51.462;6.696;2022-08-21T15:09:35;27.90;46.60
7317;DHT22;3699;51.462;6.696;2022-08-21T15:12:03;27.90;47.90
7317;DHT22;3699;51.462;6.696;2022-08-21T15:14:33;27.90;47.60
7317;DHT22;3699;51.462;6.696;2022-08-21T15:17:00;27.90;47.00
7317;DHT22;3699;51.462;6.696;2022-08-21T15:19:29;27.80;47.60
7317;DHT22;3699;51.462;6.696;2022-08-21T15:21:57;27.80;45.90
7317;DHT22;3699;51.462;6.696;2022-08-21T15:24:24;27.70;46.40
7317;DHT22;3699;51.462;6.696;2022-08-21T15:26:51;27.70;47.60
7317;DHT22;3699;51.462;6.696;2022-08-21T15:29:19;27.70;46.70
7317;DHT22;3699;51.462;6.696;2022-08-21T15:31:51;27.70;46.90
7317;DHT22;3699;51.462;6.696;2022-08-21T15:34:19;27.60;45.70
7317;DHT22;3699;51.462;6.696;2022-08-21T15:36:45;27.60;46.30
7317;DHT22;3699;51.462;6.696;2022-08-21T15:39:14;27.60;47.40
7317;DHT22;3699;51.462;6.696;2022-08-21T15:41:40;27.50;47.10
7317;DHT22;3699;51.462;6.696;2022-08-21T15:44:09;27.60;47.00
7317;DHT22;3699;51.462;6.696;2022-08-21T15:46:38;27.60;47.00
7317;DHT22;3699;51.462;6.696;2022-08-21T15:49:05;27.70;47.90
7317;DHT22;3699;51.462;6.696;2022-08-21T15:51:32;27.80;45.60
7317;DHT22;3699;51.462;6.696;2022-08-21T15:53:59;27.70;46.10
7317;DHT22;3699;51.462;6.696;2022-08-21T15:56:33;27.80;46.60
7317;DHT22;3699;51.462;6.696;2022-08-21T15:59:06;27.70;45.30
7317;DHT22;3699;51.462;6.696;2022-08-21T16:01:35;27.60;45.00
7317;DHT22;3699;51.462;6.696;2022-08-21T16:04:02;27.50;45.60
7317;DHT22;3699;51.462;6.696;2022-08-21T16:06:30;27.50;45.60
7317;DHT22;3699;51.462;6.696;2022-08-21T16:08:57;27.40;44.20
7317;DHT22;3699;51.462;6.696;2022-08-21T16:11:24;27.40;44.10
7317;DHT22;3699;51.462;6.696;2022-08-21T16:13:53;27.30;43.90
7317;DHT22;3699;51.462;6.696;2022-08-21T16:16:22;27.10;44.60
7317;DHT22;3699;51.462;6.696;2022-08-21T16:18:50;27.10;43.80
7317;DHT22;3699;51.462;6.696;2022-08-21T16:21:17;27.00;47.80
7317;DHT22;3699;51.462;6.696;2022-08-21T16:23:44;27.00;48.30
7317;DHT22;3699;51.462;6.696;2022-08-21T16:26:12;27.00;46.30
7317;DHT22;3699;51.462;6.696;2022-08-21T16:28:42;26.90;46.70
7317;DHT22;3699;51.462;6.696;2022-08-21T16:31:12;26.90;44.60
7317;DHT22;3699;51.462;6.696;2022-08-21T16:33:42;26.80;47.60